This is the latest recevied weather packets stored in our database for station/object KC4LZN. If no packets are shown the sender has not sent any weather packets the latest 1 day(s).
| Time | Temp. | Humidity | Pressure | Rain* | Wind** | Luminosity | Snow |
|---|---|---|---|---|---|---|---|
| 1777985647 | 22.22° C | 78% | 1017.1 hPa | 0 mm | 0 m/s | 304 W/m² | - |
| 1777985343 | 22.22° C | 78% | 1017.2 hPa | 0 mm | 1.79 m/s, 49° | 284 W/m² | - |
| 1777985040 | 22.22° C | 77% | 1017 hPa | 0 mm | 2.68 m/s, 99° | 289 W/m² | - |
| 1777984736 | 22.22° C | 78% | 1017.1 hPa | 0 mm | 0.89 m/s, 336° | 247 W/m² | - |
| 1777984433 | 22.22° C | 78% | 1017.3 hPa | 0 mm | 1.79 m/s, 61° | 227 W/m² | - |
| 1777984128 | 21.67° C | 80% | 1017 hPa | 0 mm | 1.34 m/s, 70° | 179 W/m² | - |
| 1777983826 | 21.67° C | 80% | 1017.1 hPa | 0 mm | 0.45 m/s, 73° | 153 W/m² | - |
| 1777983523 | 21.67° C | 81% | 1017.2 hPa | 0 mm | 1.34 m/s, 76° | 133 W/m² | - |
| 1777983220 | 21.11° C | 82% | 1017.2 hPa | 0 mm | 0.89 m/s, 49° | 113 W/m² | - |
| 1777982916 | 20.56° C | 83% | 1017.1 hPa | 0 mm | 0.89 m/s, 26° | 101 W/m² | - |
| 1777982612 | 20.56° C | 85% | 1016.9 hPa | 0 mm | 0.89 m/s, 59° | 89 W/m² | - |
| 1777982311 | 20° C | 88% | 1016.7 hPa | 0 mm | 0 m/s | 79 W/m² | - |
| 1777982008 | 18.89° C | 92% | 1016.8 hPa | 0 mm | 0.45 m/s, 15° | 73 W/m² | - |
| 1777981706 | 18.89° C | 96% | 1016.6 hPa | 0 mm | 0.89 m/s, 354° | 66 W/m² | - |
| 1777981402 | 18.33° C | 98% | 1016.7 hPa | 0 mm | 0.45 m/s, 35° | 59 W/m² | - |
| 1777981099 | 17.78° C | 99% | 1016.6 hPa | 0 mm | 0 m/s | 52 W/m² | - |
| 1777980795 | 17.78° C | 99% | 1016.7 hPa | 0 mm | 0 m/s | 45 W/m² | - |
| 1777980491 | 17.22° C | 99% | 1016.8 hPa | 0 mm | 0 m/s | 39 W/m² | - |
| 1777980189 | 16.67° C | 99% | 1016.7 hPa | 0 mm | 0 m/s | 33 W/m² | - |
| 1777979884 | 16.67° C | 99% | 1016.3 hPa | 0 mm | 0 m/s | 31 W/m² | - |
| 1777979580 | 16.11° C | 99% | 1016.5 hPa | 0 mm | 0.45 m/s, 11° | 26 W/m² | - |
| 1777979276 | 16.11° C | 99% | 1016.2 hPa | 0 mm | 0 m/s | 23 W/m² | - |
| 1777978974 | 15.56° C | 99% | 1016.2 hPa | 0 mm | 0 m/s | 18 W/m² | - |
| 1777978670 | 15.56° C | 99% | 1016 hPa | 0 mm | 0 m/s | 14 W/m² | - |
| 1777978365 | 15.56° C | 99% | 1016 hPa | 0 mm | 0 m/s | 9 W/m² | - |
* Rain latest hour (hover to see other rain measurements)
** Current wind speed in m/s (hover to see current wind gust speed)